Terminal Aerodrome Forecast
Issued by NWS

Home | Current Version | Previous Version | Text Only | Print | Product List | Glossary Off
Versions: 1 2 3 4 5 6 7 8 9 10 11 12 13 14 15 16

000
FTUS43 KGRB 260800 AAA
TAFMTW
TAF AMD
KMTW 260857Z 2609/2706 29012G17KT P6SM OVC040
     FM261200 29009G14KT P6SM BKN035
     FM261500 32013G18KT P6SM BKN035
     FM270200 34011KT P6SM SCT030=

USA.gov is the U.S. government's official web portal to all federal, state and local government web resources and services.